createdAt,value
2023-04-26T00:00:10.883Z,5.03
2023-04-26T00:02:37.546Z,5.40
2023-04-26T00:05:04.553Z,4.93
2023-04-26T00:07:31.142Z,5.32
2023-04-26T00:09:57.615Z,5.28
2023-04-26T00:12:24.096Z,5.67
2023-04-26T00:14:50.810Z,5.22
2023-04-26T00:17:17.395Z,5.70
2023-04-26T00:19:43.995Z,5.28
2023-04-26T00:22:10.555Z,5.40
2023-04-26T00:24:37.026Z,5.67
2023-04-26T00:27:03.585Z,5.55
2023-04-26T00:29:30.003Z,4.97
2023-04-26T00:31:56.686Z,5.43
2023-04-26T00:34:23.176Z,5.32
2023-04-26T00:36:49.622Z,5.93
2023-04-26T00:39:16.075Z,5.40
2023-04-26T00:41:42.528Z,5.63
2023-04-26T00:44:09.053Z,5.43
2023-04-26T00:46:35.590Z,5.40
2023-04-26T00:49:02.798Z,4.97
2023-04-26T00:51:29.473Z,5.30
2023-04-26T00:53:57.077Z,5.90
2023-04-26T00:56:24.912Z,5.78
2023-04-26T00:58:51.547Z,5.80
2023-04-26T01:01:18.256Z,5.70
2023-04-26T01:03:44.966Z,5.75
2023-04-26T01:06:11.659Z,5.80
2023-04-26T01:08:38.277Z,5.63
2023-04-26T01:11:04.947Z,6.13
2023-04-26T01:13:32.277Z,5.90
2023-04-26T01:15:59.826Z,5.82
2023-04-26T01:18:26.782Z,5.90
2023-04-26T01:20:53.211Z,6.20
2023-04-26T01:23:19.622Z,6.60
2023-04-26T01:25:46.119Z,6.23
2023-04-26T01:28:12.597Z,6.50
2023-04-26T01:30:39.080Z,6.25
2023-04-26T01:33:05.645Z,6.03
2023-04-26T01:35:32.155Z,6.80
2023-04-26T01:37:58.589Z,5.90
2023-04-26T01:40:25.013Z,5.90
2023-04-26T01:42:51.593Z,6.38
2023-04-26T01:45:18.226Z,6.68
2023-04-26T01:47:44.712Z,6.75
2023-04-26T01:50:11.533Z,7.10
2023-04-26T01:52:38.041Z,6.80
2023-04-26T01:55:04.933Z,6.57
2023-04-26T01:57:31.439Z,6.53
2023-04-26T01:59:58.108Z,6.55
2023-04-26T02:02:24.656Z,7.10
2023-04-26T02:04:51.124Z,6.78
2023-04-26T02:07:17.585Z,7.15
2023-04-26T02:09:44.036Z,7.43
2023-04-26T02:12:10.462Z,7.40
2023-04-26T02:14:36.962Z,7.57
2023-04-26T02:17:04.434Z,7.10
2023-04-26T02:19:30.849Z,6.63
2023-04-26T02:21:58.301Z,7.55
2023-04-26T02:24:25.292Z,6.75
2023-04-26T02:26:51.904Z,7.37
2023-04-26T02:29:18.690Z,6.45
2023-04-26T02:31:46.556Z,7.32
2023-04-26T02:34:13.124Z,7.47
2023-04-26T02:36:39.676Z,7.30
2023-04-26T02:39:06.085Z,7.40
2023-04-26T02:41:32.874Z,7.10
2023-04-26T02:43:59.311Z,7.40
2023-04-26T02:46:25.920Z,7.53
2023-04-26T02:48:52.584Z,7.65
2023-04-26T02:51:19.118Z,8.00
2023-04-26T02:53:45.645Z,8.35
2023-04-26T02:56:12.305Z,8.10
2023-04-26T02:58:38.761Z,8.10
2023-04-26T03:01:05.401Z,7.68
2023-04-26T03:03:32.377Z,7.77
2023-04-26T03:05:58.887Z,7.82
2023-04-26T03:08:25.232Z,7.53
2023-04-26T03:10:51.684Z,8.00
2023-04-26T03:13:18.132Z,8.25
2023-04-26T03:15:46.069Z,8.40
2023-04-26T03:18:12.495Z,8.32
2023-04-26T03:20:38.981Z,8.63
2023-04-26T03:23:05.392Z,8.85
2023-04-26T03:25:33.360Z,8.65
2023-04-26T03:28:00.169Z,8.40
2023-04-26T03:30:26.602Z,8.43
2023-04-26T03:32:53.245Z,8.50
2023-04-26T03:35:22.932Z,7.75
2023-04-26T03:37:50.811Z,8.45
2023-04-26T03:40:19.046Z,8.63
2023-04-26T03:42:45.528Z,8.38
2023-04-26T03:45:12.090Z,9.48
2023-04-26T03:47:38.556Z,9.65
2023-04-26T03:50:05.623Z,9.48
2023-04-26T03:52:32.009Z,9.17
2023-04-26T03:54:58.510Z,9.95
2023-04-26T03:57:24.939Z,8.43
2023-04-26T03:59:51.415Z,9.07
2023-04-26T04:02:17.991Z,9.05
2023-04-26T04:04:44.871Z,9.10
2023-04-26T04:07:11.519Z,9.07
2023-04-26T04:09:38.006Z,8.35
2023-04-26T04:12:04.589Z,9.07
2023-04-26T04:14:31.135Z,8.68
2023-04-26T04:16:57.599Z,8.70
2023-04-26T04:19:24.013Z,8.68
2023-04-26T04:21:50.399Z,8.68
2023-04-26T04:24:16.856Z,9.27
2023-04-26T04:26:43.259Z,8.82
2023-04-26T04:29:09.825Z,9.10
2023-04-26T04:31:36.574Z,9.02
2023-04-26T04:34:03.072Z,8.48
2023-04-26T04:36:29.820Z,8.93
2023-04-26T04:38:56.261Z,9.35
2023-04-26T04:41:22.783Z,8.70
2023-04-26T04:43:49.314Z,9.35
2023-04-26T04:46:15.746Z,9.05
2023-04-26T04:48:42.500Z,9.13
2023-04-26T04:51:08.955Z,9.48
2023-04-26T04:53:35.428Z,9.00
2023-04-26T04:56:01.946Z,8.63
2023-04-26T04:58:28.463Z,9.10
2023-04-26T05:00:54.934Z,9.13
2023-04-26T05:03:21.493Z,9.27
2023-04-26T05:05:48.295Z,9.20
2023-04-26T05:08:14.739Z,9.07
2023-04-26T05:10:41.233Z,9.32
2023-04-26T05:13:07.955Z,8.85
2023-04-26T05:15:34.392Z,8.25
2023-04-26T05:18:00.855Z,8.17
2023-04-26T05:20:27.333Z,9.52
2023-04-26T05:22:53.770Z,8.90
2023-04-26T05:25:22.321Z,8.80
2023-04-26T05:27:49.236Z,8.50
2023-04-26T05:30:15.783Z,8.37
2023-04-26T05:32:42.412Z,8.00
2023-04-26T05:35:09.084Z,8.48
2023-04-26T05:37:35.582Z,8.63
2023-04-26T05:40:02.552Z,8.43
2023-04-26T05:42:29.141Z,7.83
2023-04-26T05:44:59.155Z,8.43
2023-04-26T05:47:25.744Z,8.25
2023-04-26T05:49:52.374Z,8.68
2023-04-26T05:52:18.835Z,8.93
2023-04-26T05:54:45.320Z,8.60
2023-04-26T05:57:11.791Z,7.82
2023-04-26T05:59:38.290Z,7.70
2023-04-26T06:02:04.875Z,7.97
2023-04-26T06:04:31.636Z,7.28
2023-04-26T06:06:58.168Z,6.80
2023-04-26T06:09:24.637Z,7.60
2023-04-26T06:11:51.049Z,7.63
2023-04-26T06:14:29.344Z,7.90
2023-04-26T06:16:57.876Z,7.35
2023-04-26T06:19:24.457Z,7.60
2023-04-26T06:21:50.918Z,7.57
2023-04-26T06:24:17.576Z,7.10
2023-04-26T06:26:44.189Z,7.18
2023-04-26T06:29:10.629Z,7.50
2023-04-26T06:31:37.222Z,7.60
2023-04-26T06:34:04.294Z,7.22
2023-04-26T06:36:30.989Z,7.68
2023-04-26T06:38:57.429Z,7.55
2023-04-26T06:41:24.006Z,6.85
2023-04-26T06:43:50.718Z,6.70
2023-04-26T06:46:17.410Z,7.57
2023-04-26T06:48:43.832Z,7.25
2023-04-26T06:51:10.284Z,7.22
2023-04-26T06:53:36.969Z,6.72
2023-04-26T06:56:03.794Z,6.87
2023-04-26T06:58:30.280Z,7.05
2023-04-26T07:00:56.843Z,8.02
2023-04-26T07:03:23.455Z,6.70
2023-04-26T07:05:50.069Z,7.10
2023-04-26T07:08:16.585Z,6.90
2023-04-26T07:10:43.053Z,6.28
2023-04-26T07:13:09.752Z,6.55
2023-04-26T07:15:36.308Z,6.25
2023-04-26T07:18:02.852Z,6.82
2023-04-26T07:20:29.535Z,6.37
2023-04-26T07:22:57.181Z,6.30
2023-04-26T07:25:23.704Z,6.10
2023-04-26T07:27:50.131Z,5.90
2023-04-26T07:30:16.578Z,6.25
2023-04-26T07:32:43.091Z,6.43
2023-04-26T07:35:10.860Z,6.03
2023-04-26T07:37:37.381Z,6.00
2023-04-26T07:40:04.237Z,5.90
2023-04-26T07:42:30.845Z,5.30
2023-04-26T07:44:57.417Z,5.47
2023-04-26T07:47:23.919Z,6.32
2023-04-26T07:49:53.661Z,5.70
2023-04-26T07:52:20.321Z,5.57
2023-04-26T07:54:46.906Z,5.45
2023-04-26T07:57:13.333Z,4.97
2023-04-26T07:59:39.827Z,4.88
2023-04-26T08:02:06.433Z,4.63
2023-04-26T08:04:34.129Z,4.90
2023-04-26T08:07:01.470Z,4.68
2023-04-26T08:09:29.077Z,4.40
2023-04-26T08:11:55.545Z,4.28
2023-04-26T08:14:22.458Z,4.20
2023-04-26T08:16:48.947Z,3.60
2023-04-26T08:19:15.421Z,3.42
2023-04-26T08:21:42.151Z,2.70
2023-04-26T08:24:08.719Z,3.20
2023-04-26T08:26:35.223Z,3.40
2023-04-26T08:29:01.621Z,3.80
2023-04-26T08:31:28.158Z,1.90
2023-04-26T08:33:54.877Z,1.93
2023-04-26T08:36:21.431Z,2.20
2023-04-26T08:38:48.010Z,2.75
2023-04-26T08:41:20.373Z,2.50
2023-04-26T08:43:47.688Z,2.88
2023-04-26T08:46:19.022Z,2.30
2023-04-26T08:48:54.684Z,2.65
2023-04-26T08:51:22.404Z,2.70
2023-04-26T08:53:52.632Z,2.50
2023-04-26T08:56:22.969Z,2.00
2023-04-26T08:58:49.696Z,2.43
2023-04-26T09:01:17.473Z,2.10
2023-04-26T09:03:44.179Z,1.90
2023-04-26T09:06:11.766Z,2.00
2023-04-26T09:08:41.736Z,2.13
2023-04-26T09:11:08.191Z,2.23
2023-04-26T09:13:34.672Z,1.92
2023-04-26T09:16:03.469Z,2.17
2023-04-26T09:18:31.427Z,1.50
2023-04-26T09:21:06.448Z,1.77
2023-04-26T09:23:33.285Z,1.90
2023-04-26T09:26:19.574Z,1.88
2023-04-26T09:28:46.113Z,2.10
2023-04-26T09:31:34.029Z,2.33
2023-04-26T09:34:01.052Z,2.00
2023-04-26T09:36:27.597Z,2.17
2023-04-26T09:38:54.249Z,2.65
2023-04-26T09:41:20.802Z,2.63
2023-04-26T09:43:50.933Z,2.22
2023-04-26T09:46:23.103Z,4.05
2023-04-26T09:49:01.484Z,3.40
2023-04-26T09:51:27.941Z,3.38
2023-04-26T09:53:55.632Z,3.03
2023-04-26T09:56:23.064Z,2.60
2023-04-26T09:58:59.878Z,2.47
2023-04-26T10:01:27.923Z,2.97
2023-04-26T10:03:56.092Z,3.58
2023-04-26T10:06:23.241Z,3.58
2023-04-26T10:08:49.797Z,3.38
2023-04-26T10:11:17.589Z,3.50
2023-04-26T10:13:44.192Z,3.60
2023-04-26T10:16:10.771Z,3.65
2023-04-26T10:18:37.733Z,3.75
2023-04-26T10:21:19.987Z,3.63
2023-04-26T10:23:47.506Z,3.38
2023-04-26T10:26:48.742Z,3.13
2023-04-26T10:29:15.447Z,3.10
2023-04-26T10:32:00.864Z,3.25
2023-04-26T10:34:28.867Z,3.20
2023-04-26T10:37:14.049Z,3.00
2023-04-26T10:39:45.610Z,3.27
2023-04-26T10:42:19.140Z,3.20
2023-04-26T10:44:45.716Z,3.60
2023-04-26T10:47:24.325Z,3.53
2023-04-26T10:49:50.908Z,3.20
2023-04-26T10:52:20.931Z,3.30
2023-04-26T10:54:54.780Z,3.30
2023-04-26T10:57:22.645Z,3.40
2023-04-26T11:00:16.274Z,3.50
2023-04-26T11:03:05.423Z,3.60
2023-04-26T11:05:38.955Z,3.40
2023-04-26T11:08:15.256Z,3.53
2023-04-26T11:10:42.493Z,3.30
2023-04-26T11:13:09.112Z,3.60
2023-04-26T11:15:35.785Z,3.95
2023-04-26T11:18:03.864Z,3.60
2023-04-26T11:20:31.700Z,3.53
2023-04-26T11:22:59.161Z,3.00
2023-04-26T11:25:26.936Z,3.28
2023-04-26T11:27:59.145Z,3.22
2023-04-26T11:30:25.670Z,3.60
2023-04-26T11:32:52.274Z,3.35
2023-04-26T11:35:18.876Z,3.40
2023-04-26T11:37:45.986Z,3.45
2023-04-26T11:40:12.691Z,3.45
2023-04-26T11:42:39.258Z,3.80
2023-04-26T11:45:06.379Z,3.70
2023-04-26T11:47:34.813Z,3.55
2023-04-26T11:50:01.979Z,3.50
2023-04-26T11:52:28.638Z,3.67
2023-04-26T11:55:02.207Z,3.30
2023-04-26T11:57:31.361Z,3.40
2023-04-26T12:00:14.910Z,3.60
2023-04-26T12:02:48.656Z,3.60
2023-04-26T12:05:26.952Z,3.53
2023-04-26T12:07:55.504Z,3.73
2023-04-26T12:10:27.919Z,3.80
2023-04-26T12:12:56.159Z,3.70
2023-04-26T12:15:24.120Z,3.40
2023-04-26T12:18:05.818Z,3.78
2023-04-26T12:20:40.729Z,3.47
2023-04-26T12:23:10.446Z,3.80
2023-04-26T12:25:38.789Z,4.10
2023-04-26T12:28:10.878Z,4.10
2023-04-26T12:30:38.869Z,3.90
2023-04-26T12:33:16.641Z,3.70
2023-04-26T12:35:44.712Z,4.10
2023-04-26T12:38:11.569Z,3.95
2023-04-26T12:40:38.248Z,4.10
2023-04-26T12:43:04.811Z,4.32
2023-04-26T12:45:31.287Z,4.27
2023-04-26T12:47:57.750Z,4.10
2023-04-26T12:50:24.445Z,4.30
2023-04-26T12:52:50.899Z,4.50
2023-04-26T12:55:17.570Z,4.60
2023-04-26T12:57:44.987Z,4.80
2023-04-26T13:00:14.410Z,5.18
2023-04-26T13:02:41.378Z,4.78
2023-04-26T13:05:08.686Z,4.80
2023-04-26T13:07:37.098Z,4.78
2023-04-26T13:10:04.147Z,4.80
2023-04-26T13:12:30.925Z,5.00
2023-04-26T13:14:57.437Z,5.30
2023-04-26T13:17:25.672Z,4.72
2023-04-26T13:19:52.990Z,5.05
2023-04-26T13:22:20.273Z,4.63
2023-04-26T13:24:47.040Z,4.68
2023-04-26T13:27:14.040Z,4.80
2023-04-26T13:29:41.026Z,5.28
2023-04-26T13:32:07.789Z,5.10
2023-04-26T13:34:34.357Z,4.90
2023-04-26T13:37:00.815Z,4.82
2023-04-26T13:39:28.098Z,5.78
2023-04-26T13:41:55.241Z,5.93
2023-04-26T13:44:21.960Z,5.38
2023-04-26T13:46:48.532Z,5.50
2023-04-26T13:49:15.037Z,5.50
2023-04-26T13:51:41.605Z,5.82
2023-04-26T13:54:08.276Z,5.15
2023-04-26T13:56:34.745Z,5.88
2023-04-26T13:59:01.344Z,5.40
2023-04-26T14:01:28.285Z,5.13
2023-04-26T14:03:56.041Z,5.55
2023-04-26T14:06:23.013Z,5.50
2023-04-26T14:08:49.520Z,5.15
2023-04-26T14:11:16.108Z,6.00
2023-04-26T14:13:42.589Z,6.00
2023-04-26T14:16:09.183Z,6.10
2023-04-26T14:18:35.788Z,5.78
2023-04-26T14:21:02.285Z,6.13
2023-04-26T14:23:28.898Z,5.70
2023-04-26T14:25:55.334Z,5.45
2023-04-26T14:28:21.928Z,4.95
2023-04-26T14:30:48.454Z,5.22
2023-04-26T14:33:14.988Z,4.95
2023-04-26T14:35:41.556Z,5.10
2023-04-26T14:38:07.971Z,5.18
2023-04-26T14:40:36.405Z,5.72
2023-04-26T14:43:03.021Z,5.40
2023-04-26T14:45:43.302Z,6.03
2023-04-26T14:48:11.002Z,5.87
2023-04-26T14:50:37.800Z,5.60
2023-04-26T14:53:04.482Z,5.68
2023-04-26T14:55:31.041Z,6.22
2023-04-26T14:57:57.609Z,5.13
2023-04-26T15:00:24.184Z,5.47
2023-04-26T15:02:50.845Z,5.95
2023-04-26T15:05:17.518Z,5.93
2023-04-26T15:07:43.932Z,5.15
2023-04-26T15:10:10.490Z,5.10
2023-04-26T15:12:37.060Z,5.00
2023-04-26T15:15:04.269Z,4.57
2023-04-26T15:17:34.070Z,5.10
2023-04-26T15:20:03.594Z,5.00
2023-04-26T15:22:30.142Z,5.13
2023-04-26T15:24:56.664Z,5.20
2023-04-26T15:27:23.098Z,4.85
2023-04-26T15:29:49.559Z,4.60
2023-04-26T15:32:16.061Z,5.07
2023-04-26T15:34:42.847Z,4.85
2023-04-26T15:37:09.590Z,4.33
2023-04-26T15:39:36.127Z,4.43
2023-04-26T15:42:02.962Z,4.03
2023-04-26T15:44:29.866Z,4.30
2023-04-26T15:46:56.463Z,4.28
2023-04-26T15:49:26.465Z,3.90
2023-04-26T15:51:53.115Z,4.00
2023-04-26T15:54:19.559Z,3.90
2023-04-26T15:56:46.094Z,3.70
2023-04-26T15:59:12.641Z,3.42
2023-04-26T16:01:39.326Z,3.70
2023-04-26T16:04:06.206Z,3.75
2023-04-26T16:06:33.103Z,3.70
2023-04-26T16:08:59.876Z,3.65
2023-04-26T16:11:26.464Z,4.00
2023-04-26T16:13:52.920Z,4.00
2023-04-26T16:16:19.809Z,3.40
2023-04-26T16:18:46.536Z,3.60
2023-04-26T16:21:13.010Z,3.00
2023-04-26T16:23:40.717Z,3.60
2023-04-26T16:26:07.263Z,3.80
2023-04-26T16:28:33.915Z,3.55
2023-04-26T16:31:00.485Z,3.03
2023-04-26T16:33:27.578Z,3.97
2023-04-26T16:35:54.895Z,3.40
2023-04-26T16:38:22.345Z,3.60
2023-04-26T16:40:55.717Z,3.50
2023-04-26T16:43:22.192Z,3.42
2023-04-26T16:46:06.741Z,3.60
2023-04-26T16:48:38.472Z,3.55
2023-04-26T16:51:07.713Z,3.30
2023-04-26T16:53:35.980Z,3.60
2023-04-26T16:56:02.647Z,3.45
2023-04-26T16:58:29.285Z,4.25
2023-04-26T17:00:55.816Z,3.17
2023-04-26T17:03:22.972Z,3.10
2023-04-26T17:05:50.011Z,2.90
2023-04-26T17:08:17.483Z,4.10
2023-04-26T17:10:44.532Z,3.40
2023-04-26T17:13:11.046Z,3.10
2023-04-26T17:15:37.484Z,2.43
2023-04-26T17:18:04.770Z,2.70
2023-04-26T17:20:32.781Z,3.13
2023-04-26T17:23:03.426Z,2.97
2023-04-26T17:25:30.188Z,3.10
2023-04-26T17:27:56.737Z,3.13
2023-04-26T17:30:23.565Z,3.50
2023-04-26T17:32:50.149Z,3.10
2023-04-26T17:35:16.912Z,2.88
2023-04-26T17:37:43.494Z,2.92
2023-04-26T17:40:10.217Z,2.67
2023-04-26T17:42:36.645Z,2.50
2023-04-26T17:45:03.493Z,2.80
2023-04-26T17:47:30.020Z,2.50
2023-04-26T17:49:56.698Z,2.42
2023-04-26T17:52:23.197Z,2.73
2023-04-26T17:54:49.631Z,2.88
2023-04-26T17:57:16.201Z,2.60
2023-04-26T17:59:42.621Z,2.60
2023-04-26T18:02:09.220Z,2.80
2023-04-26T18:04:36.001Z,2.50
2023-04-26T18:07:02.631Z,2.70
2023-04-26T18:09:29.178Z,2.90
2023-04-26T18:11:55.801Z,3.10
2023-04-26T18:14:22.269Z,2.97
2023-04-26T18:16:48.831Z,2.87
2023-04-26T18:19:15.327Z,3.03
2023-04-26T18:21:42.070Z,2.60
2023-04-26T18:24:08.680Z,3.00
2023-04-26T18:26:35.110Z,2.80
2023-04-26T18:29:01.572Z,2.87
2023-04-26T18:31:28.096Z,3.00
2023-04-26T18:33:54.595Z,2.92
2023-04-26T18:36:21.236Z,2.83
2023-04-26T18:38:47.786Z,2.72
2023-04-26T18:41:14.426Z,2.70
2023-04-26T18:43:40.983Z,2.58
2023-04-26T18:46:07.486Z,2.92
2023-04-26T18:48:33.986Z,2.70
2023-04-26T18:51:00.427Z,3.13
2023-04-26T18:53:27.024Z,3.00
2023-04-26T18:55:53.669Z,2.65
2023-04-26T18:58:20.202Z,3.30
2023-04-26T19:00:46.713Z,2.97
2023-04-26T19:03:13.300Z,3.20
2023-04-26T19:05:41.656Z,3.20
2023-04-26T19:08:08.385Z,3.03
2023-04-26T19:10:35.236Z,2.90
2023-04-26T19:13:01.852Z,3.08
2023-04-26T19:15:28.322Z,2.95
2023-04-26T19:17:54.921Z,3.10
2023-04-26T19:20:21.399Z,3.05
2023-04-26T19:22:47.932Z,3.13
2023-04-26T19:25:14.619Z,3.03
2023-04-26T19:27:41.159Z,3.13
2023-04-26T19:30:08.147Z,2.90
2023-04-26T19:32:34.713Z,3.10
2023-04-26T19:35:01.270Z,3.30
2023-04-26T19:37:27.686Z,3.05
2023-04-26T19:39:54.249Z,3.40
2023-04-26T19:42:20.781Z,3.40
2023-04-26T19:44:47.216Z,3.30
2023-04-26T19:47:13.821Z,3.15
2023-04-26T19:49:40.213Z,3.25
2023-04-26T19:52:06.632Z,3.28
2023-04-26T19:54:33.084Z,3.60
2023-04-26T19:56:59.800Z,3.30
2023-04-26T19:59:26.314Z,3.30
2023-04-26T20:01:54.044Z,3.60
2023-04-26T20:04:20.805Z,3.67
2023-04-26T20:06:47.432Z,3.50
2023-04-26T20:09:13.863Z,3.63
2023-04-26T20:11:40.308Z,3.58
2023-04-26T20:14:06.811Z,3.85
2023-04-26T20:16:33.255Z,3.80
2023-04-26T20:18:59.682Z,3.60
2023-04-26T20:21:27.237Z,3.60
2023-04-26T20:23:55.304Z,3.72
2023-04-26T20:26:21.800Z,3.53
2023-04-26T20:28:48.257Z,3.63
2023-04-26T20:31:14.683Z,3.80
2023-04-26T20:33:41.224Z,3.53
2023-04-26T20:36:07.806Z,3.78
2023-04-26T20:38:34.259Z,3.75
2023-04-26T20:41:00.697Z,3.72
2023-04-26T20:43:27.196Z,3.93
2023-04-26T20:45:53.646Z,3.78
2023-04-26T20:48:20.114Z,4.10
2023-04-26T20:50:46.649Z,3.90
2023-04-26T20:53:13.058Z,4.18
2023-04-26T20:55:39.526Z,3.53
2023-04-26T20:58:05.949Z,3.83
2023-04-26T21:00:32.361Z,4.10
2023-04-26T21:02:58.933Z,3.78
2023-04-26T21:05:25.600Z,4.38
2023-04-26T21:07:52.094Z,4.20
2023-04-26T21:10:18.584Z,4.35
2023-04-26T21:12:44.981Z,4.13
2023-04-26T21:15:11.867Z,3.90
2023-04-26T21:17:38.352Z,3.80
2023-04-26T21:20:05.375Z,4.57
2023-04-26T21:22:31.825Z,3.92
2023-04-26T21:24:58.332Z,4.35
2023-04-26T21:27:25.049Z,4.10
2023-04-26T21:29:51.626Z,4.03
2023-04-26T21:32:18.013Z,4.10
2023-04-26T21:34:44.608Z,4.68
2023-04-26T21:37:11.120Z,4.72
2023-04-26T21:39:37.647Z,4.18
2023-04-26T21:42:04.158Z,4.30
2023-04-26T21:44:30.631Z,4.60
2023-04-26T21:46:57.048Z,4.78
2023-04-26T21:49:23.530Z,4.55
2023-04-26T21:51:50.054Z,4.90
2023-04-26T21:54:16.508Z,4.65
2023-04-26T21:56:44.139Z,4.60
2023-04-26T21:59:10.802Z,4.63
2023-04-26T22:01:37.531Z,5.22
2023-04-26T22:04:04.361Z,5.60
2023-04-26T22:06:31.067Z,5.07
2023-04-26T22:08:57.493Z,4.97
2023-04-26T22:11:23.928Z,5.15
2023-04-26T22:13:50.432Z,5.13
2023-04-26T22:16:16.877Z,5.07
2023-04-26T22:18:43.354Z,5.35
2023-04-26T22:21:09.867Z,5.10
2023-04-26T22:23:36.334Z,4.95
2023-04-26T22:26:02.848Z,5.43
2023-04-26T22:28:29.281Z,5.05
2023-04-26T22:30:55.747Z,5.30
2023-04-26T22:33:22.222Z,5.40
2023-04-26T22:35:48.680Z,5.22
2023-04-26T22:38:15.172Z,5.28
2023-04-26T22:40:42.020Z,5.30
2023-04-26T22:43:08.428Z,5.50
2023-04-26T22:45:34.899Z,5.40
2023-04-26T22:48:01.389Z,5.18
2023-04-26T22:50:27.823Z,5.65
2023-04-26T22:52:54.356Z,5.45
2023-04-26T22:55:20.798Z,5.60
2023-04-26T22:57:47.317Z,5.53
2023-04-26T23:00:14.350Z,5.00
2023-04-26T23:02:40.888Z,5.25
2023-04-26T23:05:08.138Z,5.22
2023-04-26T23:07:34.603Z,5.25
2023-04-26T23:10:01.104Z,4.90
2023-04-26T23:12:27.612Z,4.88
2023-04-26T23:14:58.460Z,4.60
2023-04-26T23:17:25.986Z,5.30
2023-04-26T23:19:53.283Z,5.05
2023-04-26T23:22:19.949Z,5.37
2023-04-26T23:24:46.558Z,4.90
2023-04-26T23:27:13.011Z,5.22
2023-04-26T23:29:39.452Z,4.57
2023-04-26T23:32:05.899Z,5.03
2023-04-26T23:34:32.374Z,4.60
2023-04-26T23:36:58.851Z,4.50
2023-04-26T23:39:35.203Z,4.90
2023-04-26T23:42:01.756Z,4.70
2023-04-26T23:44:28.264Z,4.70
2023-04-26T23:46:54.742Z,4.43
2023-04-26T23:49:21.308Z,4.78
2023-04-26T23:51:47.762Z,4.65
2023-04-26T23:54:14.192Z,4.30
2023-04-26T23:56:40.652Z,4.53
2023-04-26T23:59:07.153Z,4.77
